Time;durP1;ratioP1;P1;durP2;ratioP2;P2;SDS_P1;SDS_P2;PMS_P1;PMS_P2;Temp;Humidity;BMP_temperature;BMP_pressure;BME280_temperature;BME280_humidity;BME280_pressure;Samples;Min_cycle;Max_cycle;Signal;HPM_P1;HPM_P2
2023/09/02 00:02:02;;;;;;;40.85;17.88;;;;;;;;;;5045262;28;20102;-54
2023/09/02 00:04:28;;;;;;;40.03;17.50;;;;;;;;;;5049156;28;20099;-55
2023/09/02 00:06:53;;;;;;;44.50;18.63;;;;;;;;;;5048698;28;20477;-56
2023/09/02 00:09:19;;;;;;;42.88;18.27;;;;;;;;;;5041447;28;20105;-55
2023/09/02 00:11:44;;;;;;;50.33;19.63;;;;;;;;;;5039694;28;20029;-54
2023/09/02 00:14:10;;;;;;;45.78;18.52;;;;;;;;;;5031768;28;20040;-55
2023/09/02 00:16:35;;;;;;;44.08;17.75;;;;;;;;;;5038558;28;20036;-56
2023/09/02 00:19:02;;;;;;;43.53;17.98;;;;;;;;;;5031431;28;20033;-55
2023/09/02 00:21:27;;;;;;;43.03;17.95;;;;;;;;;;5034861;28;20021;-56
2023/09/02 00:24:01;;;;;;;40.63;17.85;;;;;;;;;;5041441;28;20040;-52
2023/09/02 00:26:26;;;;;;;41.90;17.98;;;;;;;;;;5038567;28;20029;-55
2023/09/02 00:28:52;;;;;;;43.65;18.40;;;;;;;;;;5032794;28;20040;-56
2023/09/02 00:31:17;;;;;;;47.22;19.17;;;;;;;;;;5042605;28;20484;-57
2023/09/02 00:33:42;;;;;;;48.35;18.45;;;;;;;;;;5041127;28;20029;-54
2023/09/02 00:36:08;;;;;;;46.38;18.20;;;;;;;;;;5041986;28;20036;-55
2023/09/02 00:38:33;;;;;;;45.28;18.40;;;;;;;;;;5040392;28;20426;-56
2023/09/02 00:41:02;;;;;;;44.83;19.08;;;;;;;;;;5040670;28;20024;-53
2023/09/02 00:43:29;;;;;;;52.22;18.38;;;;;;;;;;5039792;28;20060;-50
2023/09/02 00:45:55;;;;;;;48.17;18.23;;;;;;;;;;5038970;28;20096;-56
2023/09/02 00:48:21;;;;;;;46.58;18.38;;;;;;;;;;5041105;28;20032;-56
2023/09/02 00:50:46;;;;;;;42.85;18.02;;;;;;;;;;5037660;28;20051;-55
2023/09/02 00:53:11;;;;;;;52.25;18.67;;;;;;;;;;5041487;28;20500;-55
2023/09/02 00:55:39;;;;;;;51.10;19.10;;;;;;;;;;5041296;28;20118;-57
2023/09/02 00:58:05;;;;;;;49.00;18.88;;;;;;;;;;5040108;28;20025;-55
2023/09/02 01:00:31;;;;;;;48.05;18.67;;;;;;;;;;5044322;28;20477;-55
2023/09/02 01:02:58;;;;;;;43.45;18.05;;;;;;;;;;5049471;28;20033;-55
2023/09/02 01:05:24;;;;;;;46.92;18.55;;;;;;;;;;5051331;28;20410;-56
2023/09/02 01:07:51;;;;;;;47.78;19.23;;;;;;;;;;5049517;28;20108;-54
2023/09/02 01:10:18;;;;;;;49.33;18.73;;;;;;;;;;5052818;28;20029;-53
2023/09/02 01:12:44;;;;;;;45.15;18.85;;;;;;;;;;5045574;28;20025;-55
2023/09/02 01:15:10;;;;;;;51.42;18.98;;;;;;;;;;5034861;28;20124;-53
2023/09/02 01:17:35;;;;;;;50.63;19.85;;;;;;;;;;5049082;28;20134;-57
2023/09/02 01:20:05;;;;;;;44.47;18.55;;;;;;;;;;5036826;28;20087;-56
2023/09/02 01:23:08;;;;;;;55.90;20.90;;;;;;;;;;5051047;28;20465;-56
2023/09/02 01:25:46;;;;;;;54.72;19.63;;;;;;;;;;5047562;28;20108;-56
2023/09/02 01:28:17;;;;;;;50.30;19.80;;;;;;;;;;5043310;28;20108;-55
2023/09/02 01:30:44;;;;;;;;;;;;;;;;;;5046809;28;20029;-53
2023/09/02 01:33:10;;;;;;;52.75;19.40;;;;;;;;;;5043374;28;20364;-52
2023/09/02 01:35:37;;;;;;;49.38;19.55;;;;;;;;;;5053701;28;20072;-54
2023/09/02 01:38:04;;;;;;;40.72;19.10;;;;;;;;;;5043634;28;20426;-54
2023/09/02 01:40:32;;;;;;;53.58;20.33;;;;;;;;;;5052791;28;20064;-55
2023/09/02 01:42:59;;;;;;;53.33;20.25;;;;;;;;;;5050806;28;20122;-54
2023/09/02 01:45:28;;;;;;;55.40;20.90;;;;;;;;;;5041219;28;20362;-55
2023/09/02 01:47:55;;;;;;;45.95;20.00;;;;;;;;;;5052638;28;20127;-54
2023/09/02 01:50:24;;;;;;;44.83;19.88;;;;;;;;;;5053056;28;20033;-53
2023/09/02 01:52:50;;;;;;;49.63;20.58;;;;;;;;;;5051366;28;20483;-56
2023/09/02 01:55:16;;;;;;;41.55;18.85;;;;;;;;;;5039395;28;20053;-53
2023/09/02 01:57:41;;;;;;;45.30;20.17;;;;;;;;;;5052022;28;20473;-57
2023/09/02 02:00:08;;;;;;;50.70;20.60;;;;;;;;;;5049008;28;20492;-58
2023/09/02 02:02:38;;;;;;;46.13;20.35;;;;;;;;;;5050647;28;20036;-58
2023/09/02 02:05:06;;;;;;;54.85;20.30;;;;;;;;;;5036949;28;20482;-59
2023/09/02 02:07:36;;;;;;;52.33;19.80;;;;;;;;;;5045803;28;20029;-60
2023/09/02 02:10:05;;;;;;;49.30;20.17;;;;;;;;;;5050483;28;20044;-60
2023/09/02 02:12:31;;;;;;;50.67;19.42;;;;;;;;;;5050668;28;20112;-60
2023/09/02 02:14:57;;;;;;;49.90;19.67;;;;;;;;;;5032942;28;20095;-60
2023/09/02 02:17:25;;;;;;;50.85;20.05;;;;;;;;;;5052906;28;20482;-60
2023/09/02 02:19:51;;;;;;;49.92;18.23;;;;;;;;;;5051665;28;20040;-59
2023/09/02 02:22:16;;;;;;;53.95;20.38;;;;;;;;;;5049553;28;20033;-60
2023/09/02 02:24:42;;;;;;;65.38;20.15;;;;;;;;;;5045424;28;20059;-60
2023/09/02 02:27:07;;;;;;;54.97;20.15;;;;;;;;;;5038620;28;20041;-59
2023/09/02 02:29:34;;;;;;;55.65;20.52;;;;;;;;;;5042868;28;20033;-59
2023/09/02 02:31:59;;;;;;;58.17;20.40;;;;;;;;;;5041315;28;20044;-59
2023/09/02 02:34:25;;;;;;;54.95;20.13;;;;;;;;;;5043060;28;21722;-59
2023/09/02 02:36:50;;;;;;;60.28;20.30;;;;;;;;;;5042436;28;20040;-59
2023/09/02 02:39:17;;;;;;;54.08;18.35;;;;;;;;;;5041416;28;20474;-61
2023/09/02 02:41:43;;;;;;;55.55;19.73;;;;;;;;;;5042727;28;20033;-60
2023/09/02 02:44:08;;;;;;;49.33;18.15;;;;;;;;;;5042290;28;20055;-60
2023/09/02 02:46:34;;;;;;;47.50;18.05;;;;;;;;;;5042890;28;20087;-60
2023/09/02 02:48:59;;;;;;;44.40;18.50;;;;;;;;;;5042426;28;20029;-60
2023/09/02 02:51:25;;;;;;;49.75;18.35;;;;;;;;;;5043779;28;20114;-60
2023/09/02 02:53:51;;;;;;;54.22;18.67;;;;;;;;;;5040788;28;20033;-60
2023/09/02 02:56:16;;;;;;;43.97;17.70;;;;;;;;;;5040523;28;20061;-60
2023/09/02 02:58:42;;;;;;;52.67;18.35;;;;;;;;;;5047913;28;20072;-60
2023/09/02 03:01:13;;;;;;;61.90;19.48;;;;;;;;;;5048221;28;20033;-59
2023/09/02 03:03:38;;;;;;;51.83;18.85;;;;;;;;;;5046897;28;20029;-59
2023/09/02 03:06:04;;;;;;;51.90;17.85;;;;;;;;;;5049075;28;20096;-60
2023/09/02 03:08:31;;;;;;;55.13;18.58;;;;;;;;;;5047525;28;20025;-60
2023/09/02 03:10:58;;;;;;;55.50;18.40;;;;;;;;;;5045588;28;20036;-59
2023/09/02 03:13:45;;;;;;;49.92;17.52;;;;;;;;;;5051233;28;20041;-59
2023/09/02 03:16:09;;;;;;;56.10;18.05;;;;;;;;;;5050213;28;20390;-59
2023/09/02 03:18:35;;;;;;;54.38;18.00;;;;;;;;;;5052030;28;20037;-60
2023/09/02 03:21:05;;;;;;;53.08;17.75;;;;;;;;;;5049445;28;20107;-59
2023/09/02 03:23:32;;;;;;;62.80;18.73;;;;;;;;;;5050482;28;20053;-59
2023/09/02 03:26:15;;;;;;;52.10;18.23;;;;;;;;;;5039394;28;20051;-59
2023/09/02 03:28:40;;;;;;;55.83;18.33;;;;;;;;;;5039817;28;20044;-59
2023/09/02 03:31:10;;;;;;;52.92;17.45;;;;;;;;;;5039196;28;20021;-59
2023/09/02 03:33:36;;;;;;;52.63;17.80;;;;;;;;;;5036521;28;20110;-59
2023/09/02 03:36:03;;;;;;;47.35;16.90;;;;;;;;;;5048987;28;20086;-59
2023/09/02 03:38:29;;;;;;;53.80;18.25;;;;;;;;;;5043665;28;20037;-59
2023/09/02 03:40:56;;;;;;;57.63;19.25;;;;;;;;;;5042277;28;20029;-59
2023/09/02 03:43:24;;;;;;;50.03;17.63;;;;;;;;;;5051534;28;20068;-59
2023/09/02 03:45:49;;;;;;;44.60;17.40;;;;;;;;;;5049209;28;20052;-59
2023/09/02 03:48:19;;;;;;;57.85;18.70;;;;;;;;;;5051367;28;20102;-59
2023/09/02 03:51:11;;;;;;;54.40;18.10;;;;;;;;;;5047990;28;20028;-59
2023/09/02 03:53:40;;;;;;;49.08;18.70;;;;;;;;;;5050391;28;20037;-59
2023/09/02 03:56:05;;;;;;;47.05;17.70;;;;;;;;;;5034423;28;20112;-59
2023/09/02 03:58:31;;;;;;;51.45;17.13;;;;;;;;;;5037266;28;20051;-59
2023/09/02 04:00:56;;;;;;;44.97;16.40;;;;;;;;;;5047210;28;20075;-59
2023/09/02 04:03:23;;;;;;;40.95;16.70;;;;;;;;;;5042831;28;20057;-59
2023/09/02 04:05:49;;;;;;;47.72;17.30;;;;;;;;;;5034435;28;20041;-60
2023/09/02 04:08:22;;;;;;;45.22;16.92;;;;;;;;;;5043297;28;20029;-59
2023/09/02 04:10:55;;;;;;;45.22;16.77;;;;;;;;;;5047665;28;20111;-59
2023/09/02 04:13:23;;;;;;;51.72;17.48;;;;;;;;;;5051871;28;20033;-59
2023/09/02 04:15:49;;;;;;;41.05;16.60;;;;;;;;;;5049597;28;20187;-59
2023/09/02 04:18:14;;;;;;;52.38;17.42;;;;;;;;;;5048741;28;20463;-59
2023/09/02 04:20:41;;;;;;;67.75;18.73;;;;;;;;;;5046709;28;20029;-59
2023/09/02 04:23:06;;;;;;;54.55;18.20;;;;;;;;;;5048389;28;20319;-59
2023/09/02 04:25:32;;;;;;;52.47;17.05;;;;;;;;;;5047567;28;20501;-59
2023/09/02 04:27:57;;;;;;;52.00;17.83;;;;;;;;;;5039715;28;20029;-59
2023/09/02 04:30:24;;;;;;;66.68;19.20;;;;;;;;;;5041763;28;20377;-59
2023/09/02 04:32:50;;;;;;;61.85;18.45;;;;;;;;;;5039980;28;20025;-59
2023/09/02 04:35:15;;;;;;;59.35;18.25;;;;;;;;;;5041224;28;20029;-59
2023/09/02 04:37:41;;;;;;;57.60;17.25;;;;;;;;;;5039826;28;20039;-60
2023/09/02 04:40:08;;;;;;;52.50;17.35;;;;;;;;;;5040181;28;20055;-59
2023/09/02 04:42:33;;;;;;;50.30;16.42;;;;;;;;;;5040186;28;20029;-58
2023/09/02 04:44:59;;;;;;;49.38;17.00;;;;;;;;;;5039580;28;20037;-59
2023/09/02 04:47:24;;;;;;;45.85;16.80;;;;;;;;;;5041588;28;20029;-58
2023/09/02 04:49:50;;;;;;;47.25;16.70;;;;;;;;;;5038742;28;20445;-59
2023/09/02 04:52:15;;;;;;;42.70;15.68;;;;;;;;;;5041021;28;20478;-59
2023/09/02 04:54:45;;;;;;;48.95;16.88;;;;;;;;;;5054763;28;20026;-59
2023/09/02 04:57:10;;;;;;;49.80;16.95;;;;;;;;;;5040829;28;20061;-60
2023/09/02 04:59:36;;;;;;;52.80;17.70;;;;;;;;;;5041083;28;20037;-59
2023/09/02 05:02:01;;;;;;;59.70;18.05;;;;;;;;;;5044803;28;20108;-59
2023/09/02 05:04:26;;;;;;;46.15;17.08;;;;;;;;;;5040031;28;20155;-59
2023/09/02 05:06:52;;;;;;;57.38;18.73;;;;;;;;;;5045155;28;20062;-59
2023/09/02 05:09:17;;;;;;;55.70;17.83;;;;;;;;;;5049613;28;20473;-59
2023/09/02 05:11:43;;;;;;;50.78;17.38;;;;;;;;;;5043611;28;20060;-59
2023/09/02 05:14:08;;;;;;;54.63;18.63;;;;;;;;;;5045546;28;20461;-58
2023/09/02 05:16:33;;;;;;;53.50;18.15;;;;;;;;;;5042879;28;20075;-59
2023/09/02 05:18:59;;;;;;;53.58;18.42;;;;;;;;;;5029162;28;20038;-59
2023/09/02 05:21:25;;;;;;;61.28;19.15;;;;;;;;;;5035762;28;20029;-59
2023/09/02 05:23:52;;;;;;;54.38;18.63;;;;;;;;;;5050399;28;20033;-59
2023/09/02 05:26:18;;;;;;;50.75;17.73;;;;;;;;;;5049221;28;20481;-59
2023/09/02 05:28:43;;;;;;;47.00;17.58;;;;;;;;;;5048526;28;20033;-59
2023/09/02 05:31:09;;;;;;;47.08;17.60;;;;;;;;;;5032463;28;20036;-59
2023/09/02 05:33:34;;;;;;;45.42;16.92;;;;;;;;;;5050362;28;20029;-60
2023/09/02 05:36:00;;;;;;;47.45;17.48;;;;;;;;;;5047455;28;20032;-59
2023/09/02 05:38:25;;;;;;;50.78;16.90;;;;;;;;;;5044062;28;20029;-59
2023/09/02 05:40:51;;;;;;;54.00;17.88;;;;;;;;;;5033779;28;20386;-59
2023/09/02 05:43:17;;;;;;;45.92;17.00;;;;;;;;;;5048570;28;20025;-59
2023/09/02 05:45:42;;;;;;;39.33;15.27;;;;;;;;;;5050664;28;20025;-61
2023/09/02 05:48:08;;;;;;;45.63;16.63;;;;;;;;;;5048478;28;20037;-59
2023/09/02 05:50:33;;;;;;;43.90;16.63;;;;;;;;;;5050910;28;20055;-58
2023/09/02 05:52:59;;;;;;;42.38;16.25;;;;;;;;;;5044379;28;20104;-60
2023/09/02 05:55:24;;;;;;;42.60;15.98;;;;;;;;;;5054472;28;20021;-61
2023/09/02 05:57:50;;;;;;;49.20;17.17;;;;;;;;;;5036341;28;20065;-59
2023/09/02 06:00:16;;;;;;;49.58;16.23;;;;;;;;;;5053737;28;20171;-60
2023/09/02 06:02:41;;;;;;;44.17;16.17;;;;;;;;;;5054259;28;20392;-61
2023/09/02 06:05:06;;;;;;;41.15;16.20;;;;;;;;;;5053433;28;20031;-60
2023/09/02 06:07:32;;;;;;;41.22;16.27;;;;;;;;;;5053732;28;20025;-61
2023/09/02 06:09:57;;;;;;;44.15;16.15;;;;;;;;;;5035490;28;20100;-60
2023/09/02 06:12:23;;;;;;;39.65;15.38;;;;;;;;;;5034323;28;20025;-60
2023/09/02 06:14:48;;;;;;;39.47;15.68;;;;;;;;;;5034480;28;20049;-60
2023/09/02 06:17:14;;;;;;;37.25;15.50;;;;;;;;;;5033257;28;20026;-60
2023/09/02 06:19:39;;;;;;;38.13;15.85;;;;;;;;;;5034271;28;20037;-61
2023/09/02 06:22:04;;;;;;;37.95;15.48;;;;;;;;;;5033067;28;20029;-60
2023/09/02 06:24:30;;;;;;;40.72;16.02;;;;;;;;;;5044581;28;20385;-60
2023/09/02 06:27:03;;;;;;;40.97;16.05;;;;;;;;;;5053462;28;20036;-60
2023/09/02 06:29:28;;;;;;;40.35;16.13;;;;;;;;;;5053691;28;20025;-62
2023/09/02 06:31:53;;;;;;;43.45;18.67;;;;;;;;;;5052084;28;20095;-62
2023/09/02 06:34:22;;;;;;;36.97;16.40;;;;;;;;;;5052723;28;20033;-62
2023/09/02 06:36:47;;;;;;;40.17;15.85;;;;;;;;;;5053674;28;20118;-63
2023/09/02 06:39:13;;;;;;;40.75;16.20;;;;;;;;;;5052686;28;20394;-61
2023/09/02 06:41:38;;;;;;;37.53;15.95;;;;;;;;;;5052141;28;20033;-61
2023/09/02 06:44:04;;;;;;;36.03;14.75;;;;;;;;;;5052948;28;20032;-60
2023/09/02 06:46:33;;;;;;;30.92;13.07;;;;;;;;;;5053306;28;20102;-62
2023/09/02 06:48:59;;;;;;;27.70;13.38;;;;;;;;;;5052634;28;20033;-61
2023/09/02 06:51:24;;;;;;;30.58;13.90;;;;;;;;;;5053765;28;20029;-61
2023/09/02 06:53:50;;;;;;;26.70;13.32;;;;;;;;;;5053474;28;20552;-60
2023/09/02 06:56:15;;;;;;;29.73;13.68;;;;;;;;;;5048213;28;20040;-60
2023/09/02 06:58:42;;;;;;;30.83;13.82;;;;;;;;;;5045283;28;20051;-61
2023/09/02 07:01:23;;;;;;;26.60;12.90;;;;;;;;;;5043665;28;20091;-61
2023/09/02 07:03:49;;;;;;;23.85;12.65;;;;;;;;;;5036222;28;20067;-60
2023/09/02 07:06:15;;;;;;;24.05;12.43;;;;;;;;;;5050520;28;20069;-63
2023/09/02 07:08:44;;;;;;;20.95;12.00;;;;;;;;;;5043078;28;20057;-62
2023/09/02 07:11:13;;;;;;;20.00;11.20;;;;;;;;;;5036586;28;20119;-62
2023/09/02 07:13:39;;;;;;;20.33;10.50;;;;;;;;;;5033370;28;20112;-63
2023/09/02 07:16:06;;;;;;;17.15;11.05;;;;;;;;;;5045878;28;20090;-63
2023/09/02 07:18:33;;;;;;;18.95;11.20;;;;;;;;;;5052615;28;20105;-63
2023/09/02 07:20:59;;;;;;;18.90;11.15;;;;;;;;;;5052730;28;20163;-61
2023/09/02 07:23:25;;;;;;;18.20;11.23;;;;;;;;;;5052627;28;20462;-63
2023/09/02 07:25:51;;;;;;;18.70;10.82;;;;;;;;;;5049690;28;20542;-62
2023/09/02 07:28:16;;;;;;;18.38;10.95;;;;;;;;;;5031646;28;20160;-62
2023/09/02 07:30:42;;;;;;;19.13;11.82;;;;;;;;;;5032720;28;20449;-62
2023/09/02 07:33:07;;;;;;;20.60;12.02;;;;;;;;;;5046535;28;20112;-61
2023/09/02 07:35:37;;;;;;;19.88;11.35;;;;;;;;;;5048122;28;20029;-62
2023/09/02 07:38:06;;;;;;;18.30;10.80;;;;;;;;;;5051695;28;20041;-63
2023/09/02 07:40:35;;;;;;;19.92;11.45;;;;;;;;;;5052430;28;20473;-63
2023/09/02 07:43:02;;;;;;;18.20;11.38;;;;;;;;;;5052022;28;20550;-61
2023/09/02 07:45:27;;;;;;;16.88;11.43;;;;;;;;;;5052394;28;20029;-61
2023/09/02 07:47:53;;;;;;;18.63;11.38;;;;;;;;;;5052268;28;20033;-61
2023/09/02 07:50:19;;;;;;;16.52;11.10;;;;;;;;;;5039585;28;20034;-61
2023/09/02 07:52:44;;;;;;;18.45;11.07;;;;;;;;;;5033248;28;20032;-61
2023/09/02 07:55:10;;;;;;;17.08;11.32;;;;;;;;;;5031970;28;20358;-60
2023/09/02 07:57:35;;;;;;;17.10;11.32;;;;;;;;;;5037928;28;20025;-61
2023/09/02 08:00:00;;;;;;;17.50;10.18;;;;;;;;;;5044048;28;20104;-59
2023/09/02 08:02:26;;;;;;;15.25;9.95;;;;;;;;;;5051152;28;20424;-61
2023/09/02 08:04:51;;;;;;;15.07;10.07;;;;;;;;;;5051757;28;20029;-60
2023/09/02 08:07:17;;;;;;;16.90;9.82;;;;;;;;;;5050833;28;20055;-60
2023/09/02 08:09:42;;;;;;;15.70;9.85;;;;;;;;;;5052154;28;20036;-61
2023/09/02 08:12:08;;;;;;;14.57;9.93;;;;;;;;;;5050787;28;20458;-60
2023/09/02 08:14:33;;;;;;;15.50;9.27;;;;;;;;;;5051430;28;20037;-60
2023/09/02 08:16:59;;;;;;;16.35;9.48;;;;;;;;;;5042257;28;20045;-61
2023/09/02 08:19:24;;;;;;;16.27;9.40;;;;;;;;;;5050977;28;20450;-61
2023/09/02 08:21:50;;;;;;;11.77;8.57;;;;;;;;;;5052155;28;20029;-60
2023/09/02 08:24:15;;;;;;;13.25;8.02;;;;;;;;;;5048016;28;20521;-60
2023/09/02 08:26:44;;;;;;;14.18;8.77;;;;;;;;;;5049516;28;20102;-61
2023/09/02 08:29:09;;;;;;;12.02;8.95;;;;;;;;;;5048049;28;20040;-60
2023/09/02 08:31:35;;;;;;;12.38;8.52;;;;;;;;;;5051122;28;20033;-61
2023/09/02 08:34:00;;;;;;;11.20;7.82;;;;;;;;;;5051742;28;20039;-61
2023/09/02 08:36:26;;;;;;;10.50;7.13;;;;;;;;;;5049323;28;20037;-61
2023/09/02 08:38:52;;;;;;;11.27;7.00;;;;;;;;;;5031742;28;20036;-61
2023/09/02 08:41:25;;;;;;;10.63;7.28;;;;;;;;;;5044067;28;20055;-61
2023/09/02 08:43:55;;;;;;;7.38;5.35;;;;;;;;;;5048146;28;20029;-62
2023/09/02 08:46:24;;;;;;;8.20;6.10;;;;;;;;;;5030863;28;20029;-61
2023/09/02 08:48:50;;;;;;;9.82;6.03;;;;;;;;;;5031567;28;20029;-61
2023/09/02 08:51:16;;;;;;;7.95;5.60;;;;;;;;;;5042878;28;20041;-61
2023/09/02 08:53:43;;;;;;;8.95;5.80;;;;;;;;;;5051875;28;20037;-61
2023/09/02 08:56:10;;;;;;;8.05;5.35;;;;;;;;;;5049543;28;20469;-60
2023/09/02 08:58:38;;;;;;;9.75;5.80;;;;;;;;;;5044131;28;20063;-61
2023/09/02 09:01:04;;;;;;;10.25;6.40;;;;;;;;;;5049746;28;20029;-61
2023/09/02 09:03:31;;;;;;;7.75;5.10;;;;;;;;;;5049561;28;20045;-62
2023/09/02 09:05:59;;;;;;;7.13;4.90;;;;;;;;;;5046129;28;20104;-61
2023/09/02 09:08:28;;;;;;;8.88;4.90;;;;;;;;;;5041943;28;20032;-60
2023/09/02 09:10:56;;;;;;;8.05;4.53;;;;;;;;;;5032959;28;20033;-61
2023/09/02 09:13:24;;;;;;;5.85;4.45;;;;;;;;;;5049444;28;20037;-61
2023/09/02 09:15:50;;;;;;;5.43;4.05;;;;;;;;;;5051123;28;20135;-62
2023/09/02 09:18:16;;;;;;;6.32;3.47;;;;;;;;;;5049136;28;20029;-60
2023/09/02 09:20:42;;;;;;;4.80;3.38;;;;;;;;;;5051310;28;20029;-61
2023/09/02 09:23:08;;;;;;;4.85;3.20;;;;;;;;;;5049468;28;20021;-60
2023/09/02 09:25:36;;;;;;;4.60;3.17;;;;;;;;;;5054533;28;20032;-61
2023/09/02 09:28:11;;;;;;;7.35;3.25;;;;;;;;;;5055004;28;20039;-62
2023/09/02 09:30:37;;;;;;;5.38;3.47;;;;;;;;;;5054856;28;20056;-62
2023/09/02 09:33:05;;;;;;;5.88;3.45;;;;;;;;;;5054373;28;20060;-62
2023/09/02 09:35:31;;;;;;;6.55;3.35;;;;;;;;;;5053202;28;20051;-62
2023/09/02 09:37:57;;;;;;;3.47;2.90;;;;;;;;;;5038664;28;20041;-61
2023/09/02 09:40:38;;;;;;;4.45;3.25;;;;;;;;;;5050278;28;20115;-61
2023/09/02 09:43:15;;;;;;;4.10;2.80;;;;;;;;;;5054815;28;20148;-63
2023/09/02 09:45:51;;;;;;;6.47;3.17;;;;;;;;;;5045365;28;20029;-62
2023/09/02 09:48:17;;;;;;;4.78;3.17;;;;;;;;;;5042683;28;20074;-61
2023/09/02 09:50:50;;;;;;;5.93;3.20;;;;;;;;;;5054665;28;20029;-61
2023/09/02 09:53:16;;;;;;;3.95;3.00;;;;;;;;;;5053990;28;20029;-62
2023/09/02 09:55:41;;;;;;;4.70;3.13;;;;;;;;;;5035083;28;20029;-60
2023/09/02 09:58:06;;;;;;;5.22;3.30;;;;;;;;;;5049692;28;20087;-60
2023/09/02 10:00:32;;;;;;;7.20;3.00;;;;;;;;;;5053053;28;20028;-60
2023/09/02 10:02:58;;;;;;;5.05;3.40;;;;;;;;;;5047126;28;20420;-59
2023/09/02 10:05:26;;;;;;;6.90;3.88;;;;;;;;;;5043251;28;20439;-60
2023/09/02 10:08:09;;;;;;;7.93;4.07;;;;;;;;;;5053812;28;20024;-60
2023/09/02 10:10:39;;;;;;;9.45;4.03;;;;;;;;;;5053132;28;20036;-60
2023/09/02 10:13:05;;;;;;;6.65;3.60;;;;;;;;;;5052460;28;20038;-60
2023/09/02 10:15:31;;;;;;;7.47;4.55;;;;;;;;;;5051375;28;20934;-60
2023/09/02 10:17:59;;;;;;;7.75;4.53;;;;;;;;;;5052671;28;20025;-60
2023/09/02 10:20:26;;;;;;;8.90;4.80;;;;;;;;;;5052892;28;20458;-59
2023/09/02 10:22:59;;;;;;;8.05;5.10;;;;;;;;;;5053584;28;20029;-60
2023/09/02 10:25:29;;;;;;;9.50;5.05;;;;;;;;;;5051602;28;20087;-60
2023/09/02 10:28:04;;;;;;;7.05;5.30;;;;;;;;;;5053532;28;20029;-60
2023/09/02 10:30:42;;;;;;;7.93;5.70;;;;;;;;;;5043686;28;20051;-60
2023/09/02 10:33:32;;;;;;;7.15;5.57;;;;;;;;;;5053665;28;20462;-59
2023/09/02 10:36:00;;;;;;;8.05;5.90;;;;;;;;;;5053006;28;20056;-59
2023/09/02 10:38:28;;;;;;;8.00;5.50;;;;;;;;;;5052626;28;20032;-59
2023/09/02 10:41:09;;;;;;;8.30;5.90;;;;;;;;;;5053837;28;20450;-59
2023/09/02 10:43:36;;;;;;;9.38;6.10;;;;;;;;;;5051635;28;20039;-59
2023/09/02 10:46:02;;;;;;;7.85;6.25;;;;;;;;;;5053161;28;20025;-60
2023/09/02 10:48:28;;;;;;;10.48;7.00;;;;;;;;;;5051239;28;20111;-59
2023/09/02 10:50:54;;;;;;;8.98;5.97;;;;;;;;;;5053136;28;20143;-59
2023/09/02 10:53:52;;;;;;;9.32;6.40;;;;;;;;;;5041883;28;20041;-60
2023/09/02 10:56:46;;;;;;;7.95;5.32;;;;;;;;;;5032096;28;20436;-62
2023/09/02 10:59:28;;;;;;;9.15;6.70;;;;;;;;;;5027948;28;20038;-60
2023/09/02 11:01:53;;;;;;;8.65;6.28;;;;;;;;;;5033296;28;20462;-59
2023/09/02 11:04:40;;;;;;;10.30;7.10;;;;;;;;;;5032310;28;20029;-60
2023/09/02 11:07:18;;;;;;;10.30;7.05;;;;;;;;;;5034053;28;20029;-60
2023/09/02 11:09:51;;;;;;;7.35;5.65;;;;;;;;;;5052104;28;20488;-60
2023/09/02 11:12:17;;;;;;;9.15;6.93;;;;;;;;;;5052150;28;20433;-60
2023/09/02 11:15:11;;;;;;;7.43;6.63;;;;;;;;;;5052590;28;20041;-60
2023/09/02 11:17:41;;;;;;;10.88;7.97;;;;;;;;;;5052337;28;20044;-59
2023/09/02 11:20:11;;;;;;;8.70;7.80;;;;;;;;;;5052549;28;20033;-59
2023/09/02 11:22:46;;;;;;;11.45;10.00;;;;;;;;;;5051883;28;20473;-59
2023/09/02 11:25:33;;;;;;;12.90;10.18;;;;;;;;;;5050423;28;20032;-60
2023/09/02 11:28:01;;;;;;;12.43;11.10;;;;;;;;;;5052687;28;20043;-61
2023/09/02 11:30:29;;;;;;;14.43;12.55;;;;;;;;;;5050817;28;20420;-60
2023/09/02 11:32:55;;;;;;;14.50;12.93;;;;;;;;;;5052585;28;20108;-59
2023/09/02 11:35:32;;;;;;;16.17;13.10;;;;;;;;;;5051717;28;20175;-60
2023/09/02 11:37:59;;;;;;;13.68;12.23;;;;;;;;;;5044482;28;20470;-59
2023/09/02 11:40:26;;;;;;;14.45;12.95;;;;;;;;;;5030461;28;20187;-60
2023/09/02 11:42:54;;;;;;;13.60;12.23;;;;;;;;;;5032458;28;20029;-60
2023/09/02 11:45:20;;;;;;;17.02;13.95;;;;;;;;;;5031519;28;20506;-60
2023/09/02 11:47:48;;;;;;;16.23;13.95;;;;;;;;;;5031433;28;20025;-59
2023/09/02 11:50:15;;;;;;;16.15;14.45;;;;;;;;;;5031867;28;20440;-60
2023/09/02 11:52:41;;;;;;;15.02;13.52;;;;;;;;;;5037462;28;20083;-59
2023/09/02 11:55:15;;;;;;;14.93;13.02;;;;;;;;;;5039479;28;20113;-59
2023/09/02 11:57:44;;;;;;;13.38;11.95;;;;;;;;;;5031784;28;20057;-60
2023/09/02 12:00:24;;;;;;;14.50;12.90;;;;;;;;;;5032106;28;20105;-60
2023/09/02 12:02:50;;;;;;;12.85;11.55;;;;;;;;;;5031039;28;20060;-60
2023/09/02 12:05:16;;;;;;;12.32;11.02;;;;;;;;;;5031278;28;20421;-60
2023/09/02 12:07:43;;;;;;;12.57;10.95;;;;;;;;;;5039473;28;20036;-60
2023/09/02 12:10:10;;;;;;;11.15;10.05;;;;;;;;;;5029884;28;20045;-60
2023/09/02 12:12:40;;;;;;;11.73;10.52;;;;;;;;;;5031234;28;20044;-60
2023/09/02 12:15:06;;;;;;;11.75;10.55;;;;;;;;;;5031858;28;20520;-60
2023/09/02 12:17:31;;;;;;;12.15;10.95;;;;;;;;;;5030983;28;20076;-60
2023/09/02 12:19:58;;;;;;;11.30;10.20;;;;;;;;;;5033694;28;20409;-60
2023/09/02 12:22:24;;;;;;;11.88;10.40;;;;;;;;;;5048705;28;20039;-60
2023/09/02 12:24:49;;;;;;;11.55;10.35;;;;;;;;;;5050220;28;20037;-61
2023/09/02 12:27:19;;;;;;;12.23;11.00;;;;;;;;;;5051735;28;20079;-60
2023/09/02 12:29:57;;;;;;;13.07;11.77;;;;;;;;;;5051248;28;20060;-60
2023/09/02 12:32:23;;;;;;;14.40;12.82;;;;;;;;;;5050845;28;20250;-61
2023/09/02 12:34:48;;;;;;;14.35;12.95;;;;;;;;;;5051719;28;20442;-60
2023/09/02 12:37:16;;;;;;;14.43;13.02;;;;;;;;;;5051693;28;20029;-60
2023/09/02 12:39:41;;;;;;;14.40;12.90;;;;;;;;;;5032946;28;20029;-60
2023/09/02 12:42:24;;;;;;;14.90;13.30;;;;;;;;;;5031455;28;20030;-60
2023/09/02 12:45:09;;;;;;;15.35;13.32;;;;;;;;;;5031675;28;20033;-60
2023/09/02 12:47:35;;;;;;;15.02;13.52;;;;;;;;;;5029479;28;20025;-60
2023/09/02 12:50:02;;;;;;;15.40;12.90;;;;;;;;;;5031519;28;20048;-60
2023/09/02 12:52:30;;;;;;;14.13;12.70;;;;;;;;;;5030744;28;20025;-60
2023/09/02 12:55:13;;;;;;;15.23;13.63;;;;;;;;;;5036943;28;20033;-60
2023/09/02 12:57:39;;;;;;;14.05;12.57;;;;;;;;;;5050950;28;20025;-60
2023/09/02 13:00:05;;;;;;;13.93;11.60;;;;;;;;;;5054047;28;20156;-60
2023/09/02 13:02:31;;;;;;;12.77;11.25;;;;;;;;;;5054340;28;20052;-61
2023/09/02 13:05:00;;;;;;;13.02;11.15;;;;;;;;;;5055094;28;20501;-60
2023/09/02 13:07:25;;;;;;;12.73;11.43;;;;;;;;;;5046672;28;20492;-60
2023/09/02 13:09:52;;;;;;;13.20;11.68;;;;;;;;;;5055122;28;20036;-60
2023/09/02 13:12:17;;;;;;;14.23;12.60;;;;;;;;;;5055201;28;20025;-60
2023/09/02 13:14:43;;;;;;;16.73;14.07;;;;;;;;;;5054102;28;20132;-60
2023/09/02 13:17:11;;;;;;;13.70;12.32;;;;;;;;;;5054996;28;20052;-60
2023/09/02 13:19:36;;;;;;;12.95;11.65;;;;;;;;;;5054005;28;20029;-60
2023/09/02 13:22:02;;;;;;;13.63;12.02;;;;;;;;;;5054202;28;20111;-60
2023/09/02 13:24:30;;;;;;;13.40;12.00;;;;;;;;;;5053842;28;20061;-60
2023/09/02 13:26:55;;;;;;;16.77;15.02;;;;;;;;;;5055127;28;20064;-60
2023/09/02 13:29:25;;;;;;;16.77;13.70;;;;;;;;;;5054482;28;20489;-61
2023/09/02 13:31:51;;;;;;;18.05;14.05;;;;;;;;;;5051883;28;20079;-60
2023/09/02 13:34:29;;;;;;;17.35;14.75;;;;;;;;;;5055578;28;20040;-60
2023/09/02 13:37:19;;;;;;;15.13;13.60;;;;;;;;;;5054918;28;20087;-60
2023/09/02 13:40:05;;;;;;;17.73;15.83;;;;;;;;;;5053950;28;20033;-60
2023/09/02 13:42:31;;;;;;;17.20;15.38;;;;;;;;;;5032492;28;20393;-60
2023/09/02 13:45:27;;;;;;;17.10;15.30;;;;;;;;;;5054617;28;20491;-60
2023/09/02 13:47:53;;;;;;;20.00;16.35;;;;;;;;;;5052335;28;20040;-60
2023/09/02 13:50:19;;;;;;;19.75;17.65;;;;;;;;;;5053277;28;20029;-60
2023/09/02 13:52:50;;;;;;;19.02;17.00;;;;;;;;;;5053917;28;20063;-60
2023/09/02 13:55:30;;;;;;;21.67;17.75;;;;;;;;;;5054547;28;20043;-60
2023/09/02 13:57:55;;;;;;;21.55;18.90;;;;;;;;;;5054470;28;20035;-60
2023/09/02 14:00:40;;;;;;;20.08;17.88;;;;;;;;;;5053463;28;20025;-61
2023/09/02 14:03:28;;;;;;;24.23;19.70;;;;;;;;;;5054404;28;20048;-60
2023/09/02 14:05:55;;;;;;;24.88;20.20;;;;;;;;;;5053057;28;20052;-60
2023/09/02 14:08:32;;;;;;;22.02;18.67;;;;;;;;;;5054065;28;20389;-60
2023/09/02 14:10:58;;;;;;;25.92;19.85;;;;;;;;;;5052874;28;20039;-60
2023/09/02 14:13:24;;;;;;;21.00;17.77;;;;;;;;;;5053940;28;20028;-60
2023/09/02 14:15:50;;;;;;;23.42;18.45;;;;;;;;;;5053323;28;20123;-61
2023/09/02 14:18:15;;;;;;;22.92;18.98;;;;;;;;;;5035659;28;20026;-61
2023/09/02 14:20:40;;;;;;;18.60;16.42;;;;;;;;;;5033213;28;20033;-60
2023/09/02 14:23:06;;;;;;;18.73;16.42;;;;;;;;;;5034127;28;20026;-61
2023/09/02 14:25:32;;;;;;;18.45;15.52;;;;;;;;;;5032819;28;20025;-60
2023/09/02 14:27:58;;;;;;;17.65;15.20;;;;;;;;;;5033702;28;20037;-61
2023/09/02 14:30:23;;;;;;;16.30;14.07;;;;;;;;;;5033549;28;20030;-61